createdAt,value
2017-10-16T00:02:14.493Z,6.60
2017-10-16T00:04:42.728Z,6.47
2017-10-16T00:07:10.211Z,6.60
2017-10-16T00:09:37.676Z,6.73
2017-10-16T00:12:05.933Z,6.60
2017-10-16T00:14:33.412Z,7.23
2017-10-16T00:17:01.688Z,7.10
2017-10-16T00:19:29.933Z,6.97
2017-10-16T00:21:57.404Z,7.27
2017-10-16T00:24:24.920Z,6.97
2017-10-16T00:26:52.377Z,5.90
2017-10-16T00:29:19.875Z,6.70
2017-10-16T00:31:47.340Z,6.90
2017-10-16T00:34:14.817Z,6.87
2017-10-16T00:36:42.285Z,6.37
2017-10-16T00:39:10.516Z,7.53
2017-10-16T00:41:37.980Z,7.27
2017-10-16T00:44:05.456Z,7.53
2017-10-16T00:49:25.519Z,7.47
2017-10-16T00:51:52.987Z,7.37
2017-10-16T00:54:20.473Z,7.63
2017-10-16T00:56:47.940Z,7.00
2017-10-16T00:59:15.415Z,7.90
2017-10-16T01:01:43.650Z,6.80
2017-10-16T01:04:11.138Z,7.20
2017-10-16T01:06:38.604Z,7.07
2017-10-16T01:09:06.837Z,6.93
2017-10-16T01:11:34.347Z,7.03
2017-10-16T01:14:02.588Z,6.80
2017-10-16T01:16:30.052Z,7.80
2017-10-16T01:18:57.548Z,8.30
2017-10-16T01:21:25.797Z,8.13
2017-10-16T01:23:54.150Z,8.50
2017-10-16T01:26:30.983Z,8.47
2017-10-16T01:28:59.212Z,8.40
2017-10-16T01:31:26.701Z,8.83
2017-10-16T01:33:54.925Z,8.37
2017-10-16T01:36:28.105Z,8.10
2017-10-16T01:38:55.560Z,8.00
2017-10-16T01:41:23.039Z,8.43
2017-10-16T01:43:50.535Z,8.37
2017-10-16T01:46:18.009Z,9.07
2017-10-16T01:48:46.252Z,8.90
2017-10-16T01:51:13.753Z,8.87
2017-10-16T01:53:41.985Z,8.67
2017-10-16T01:56:09.462Z,8.00
2017-10-16T01:58:36.937Z,8.23
2017-10-16T02:01:05.173Z,8.00
2017-10-16T02:03:32.640Z,8.07
2017-10-16T02:06:00.116Z,7.97
2017-10-16T02:08:27.599Z,9.77
2017-10-16T02:10:55.838Z,9.20
2017-10-16T02:13:23.313Z,9.10
2017-10-16T02:15:50.797Z,9.37
2017-10-16T02:18:18.293Z,8.70
2017-10-16T02:20:45.772Z,8.90
2017-10-16T02:23:13.251Z,10.70
2017-10-16T02:25:40.748Z,10.03
2017-10-16T02:28:08.241Z,10.87
2017-10-16T02:30:35.716Z,9.80
2017-10-16T02:33:03.195Z,9.00
2017-10-16T02:35:31.432Z,9.20
2017-10-16T02:38:04.735Z,10.40
2017-10-16T02:40:32.216Z,10.53
2017-10-16T02:42:59.697Z,9.17
2017-10-16T02:45:27.173Z,10.83
2017-10-16T02:47:54.676Z,10.57
2017-10-16T02:50:22.142Z,9.40
2017-10-16T02:52:49.625Z,10.50
2017-10-16T02:55:17.864Z,9.43
2017-10-16T02:57:45.356Z,10.60
2017-10-16T03:00:12.824Z,9.00
2017-10-16T03:02:41.073Z,10.00
2017-10-16T03:05:08.540Z,9.70
2017-10-16T03:07:36.095Z,10.70
2017-10-16T03:10:04.064Z,9.80
2017-10-16T03:12:31.573Z,10.10
2017-10-16T03:14:59.057Z,9.50
2017-10-16T03:17:26.547Z,9.27
2017-10-16T03:19:54.050Z,8.50
2017-10-16T03:22:21.519Z,9.37
2017-10-16T03:24:49.008Z,8.57
2017-10-16T03:27:16.465Z,9.50
2017-10-16T03:29:43.936Z,9.70
2017-10-16T03:32:11.404Z,9.73
2017-10-16T03:34:40.475Z,10.60
2017-10-16T03:37:07.945Z,9.50
2017-10-16T03:39:35.429Z,9.80
2017-10-16T03:42:03.669Z,10.23
2017-10-16T03:44:31.176Z,10.30
2017-10-16T03:46:59.404Z,10.30
2017-10-16T03:49:26.888Z,9.27
2017-10-16T03:51:58.182Z,11.27
2017-10-16T03:54:25.651Z,9.70
2017-10-16T03:56:53.128Z,9.10
2017-10-16T03:59:20.608Z,9.90
2017-10-16T04:01:48.080Z,10.43
2017-10-16T04:04:16.330Z,9.20
2017-10-16T04:06:43.796Z,9.43
2017-10-16T04:09:11.272Z,9.97
2017-10-16T04:11:39.526Z,11.70
2017-10-16T04:14:07.574Z,10.37
2017-10-16T04:16:35.032Z,10.50
2017-10-16T04:19:02.515Z,10.10
2017-10-16T04:21:29.998Z,9.80
2017-10-16T04:23:58.241Z,10.17
2017-10-16T04:26:26.483Z,11.23
2017-10-16T04:28:53.960Z,9.10
2017-10-16T04:31:21.436Z,10.90
2017-10-16T04:33:48.916Z,10.70
2017-10-16T04:36:16.388Z,11.10
2017-10-16T04:38:44.667Z,10.13
2017-10-16T04:41:12.923Z,10.00
2017-10-16T04:43:40.393Z,10.53
2017-10-16T04:46:08.644Z,10.30
2017-10-16T04:48:36.113Z,10.90
2017-10-16T04:51:03.595Z,10.17
2017-10-16T04:53:31.828Z,9.73
2017-10-16T04:55:59.314Z,11.73
2017-10-16T04:58:26.788Z,10.53
2017-10-16T05:00:55.059Z,11.10
2017-10-16T05:03:23.298Z,10.20
2017-10-16T05:05:50.780Z,11.80
2017-10-16T05:08:18.243Z,11.13
2017-10-16T05:10:47.224Z,11.20
2017-10-16T05:13:14.811Z,9.77
2017-10-16T05:15:43.044Z,11.77
2017-10-16T05:18:11.428Z,11.30
2017-10-16T05:20:38.907Z,11.10
2017-10-16T05:23:07.180Z,10.50
2017-10-16T05:25:34.647Z,11.40
2017-10-16T05:28:02.896Z,10.67
2017-10-16T05:30:30.368Z,11.10
2017-10-16T05:32:57.850Z,10.80
2017-10-16T05:35:26.103Z,12.10
2017-10-16T05:37:54.270Z,11.20
2017-10-16T05:40:21.787Z,12.67
2017-10-16T05:42:50.410Z,11.50
2017-10-16T05:45:17.881Z,10.27
2017-10-16T05:47:45.361Z,9.13
2017-10-16T05:50:13.597Z,9.63
2017-10-16T05:52:42.121Z,10.20
2017-10-16T05:55:10.358Z,10.83
2017-10-16T05:57:37.837Z,10.97
2017-10-16T06:00:05.308Z,10.10
2017-10-16T06:02:32.784Z,11.53
2017-10-16T06:05:00.276Z,10.47
2017-10-16T06:07:27.743Z,11.20
2017-10-16T06:09:55.246Z,11.47
2017-10-16T06:12:23.480Z,11.90
2017-10-16T06:14:51.042Z,12.60
2017-10-16T06:17:18.505Z,13.47
2017-10-16T06:19:45.984Z,13.70
2017-10-16T06:22:13.458Z,12.37
2017-10-16T06:24:41.696Z,13.80
2017-10-16T06:27:09.171Z,14.70
2017-10-16T06:29:36.656Z,13.33
2017-10-16T06:32:04.896Z,14.53
2017-10-16T06:34:32.379Z,15.07
2017-10-16T06:37:00.623Z,14.80
2017-10-16T06:39:28.100Z,14.57
2017-10-16T06:41:55.578Z,13.90
2017-10-16T06:44:23.837Z,13.03
2017-10-16T06:46:51.303Z,13.60
2017-10-16T06:49:18.767Z,11.60
2017-10-16T06:51:47.017Z,13.00
2017-10-16T06:54:14.489Z,11.63
2017-10-16T06:56:41.968Z,14.37
2017-10-16T06:59:10.204Z,12.93
2017-10-16T07:01:38.452Z,12.43
2017-10-16T07:04:05.924Z,13.77
2017-10-16T07:06:33.414Z,13.20
2017-10-16T07:09:00.884Z,13.63
2017-10-16T07:11:28.376Z,12.67
2017-10-16T07:13:55.843Z,13.87
2017-10-16T07:16:23.348Z,12.00
2017-10-16T07:18:50.812Z,13.63
2017-10-16T07:21:18.298Z,11.90
2017-10-16T07:23:46.545Z,11.60
2017-10-16T07:26:14.021Z,11.90
2017-10-16T07:28:42.258Z,11.90
2017-10-16T07:31:09.759Z,10.87
2017-10-16T07:33:37.997Z,11.90
2017-10-16T07:36:05.472Z,12.60
2017-10-16T07:38:32.948Z,11.93
2017-10-16T07:41:01.567Z,11.17
2017-10-16T07:43:29.046Z,11.47
2017-10-16T07:45:56.532Z,11.50
2017-10-16T07:48:24.042Z,10.67
2017-10-16T07:50:51.552Z,10.40
2017-10-16T07:53:19.027Z,9.93
2017-10-16T07:55:47.276Z,10.90
2017-10-16T07:58:14.768Z,10.57
2017-10-16T08:00:42.999Z,11.17
2017-10-16T08:03:10.484Z,10.27
2017-10-16T08:05:37.960Z,10.20
2017-10-16T08:08:06.231Z,11.00
2017-10-16T08:10:34.481Z,11.00
2017-10-16T08:13:01.959Z,12.00
2017-10-16T08:15:29.445Z,11.53
2017-10-16T08:17:56.928Z,12.10
2017-10-16T08:20:24.401Z,11.33
2017-10-16T08:22:51.909Z,11.27
2017-10-16T08:25:20.372Z,11.20
2017-10-16T08:27:48.631Z,10.87
2017-10-16T08:30:16.101Z,10.63
2017-10-16T08:32:43.584Z,10.20
2017-10-16T08:35:11.816Z,9.40
2017-10-16T08:37:39.312Z,9.90
2017-10-16T08:40:06.778Z,11.20
2017-10-16T08:42:35.031Z,11.63
2017-10-16T08:45:02.512Z,11.17
2017-10-16T08:47:30.760Z,10.30
2017-10-16T08:49:58.225Z,9.57
2017-10-16T08:52:25.702Z,9.90
2017-10-16T08:54:53.939Z,9.37
2017-10-16T08:57:21.424Z,9.77
2017-10-16T08:59:48.901Z,9.57
2017-10-16T09:02:17.146Z,9.80
2017-10-16T09:04:44.645Z,8.67
2017-10-16T09:07:12.888Z,10.47
2017-10-16T09:09:40.461Z,9.20
2017-10-16T09:12:07.927Z,10.10
2017-10-16T09:14:36.187Z,9.50
2017-10-16T09:17:03.670Z,9.53
2017-10-16T09:19:31.922Z,9.43
2017-10-16T09:21:59.405Z,8.93
2017-10-16T09:24:27.658Z,8.03
2017-10-16T09:26:55.128Z,8.27
2017-10-16T09:29:22.615Z,8.73
2017-10-16T09:31:50.088Z,9.40
2017-10-16T09:34:17.560Z,8.93
2017-10-16T09:36:45.032Z,9.20
2017-10-16T09:39:12.523Z,9.13
2017-10-16T09:41:40.044Z,9.00
2017-10-16T09:44:07.520Z,9.00
2017-10-16T09:46:34.984Z,8.50
2017-10-16T09:49:02.456Z,9.90
2017-10-16T09:51:30.696Z,9.10
2017-10-16T09:53:58.181Z,8.90
2017-10-16T09:56:25.656Z,9.23
2017-10-16T09:58:53.901Z,9.00
2017-10-16T10:01:21.425Z,9.83
2017-10-16T10:03:48.995Z,9.60
2017-10-16T10:06:16.455Z,9.90
2017-10-16T10:08:43.965Z,10.30
2017-10-16T10:11:12.196Z,9.00
2017-10-16T10:13:39.672Z,9.20
2017-10-16T10:16:07.147Z,9.83
2017-10-16T10:18:34.616Z,8.07
2017-10-16T10:21:02.092Z,8.90
2017-10-16T10:23:30.384Z,7.77
2017-10-16T10:25:57.901Z,9.23
2017-10-16T10:28:25.367Z,8.63
2017-10-16T10:30:52.840Z,9.00
2017-10-16T10:33:21.076Z,9.00
2017-10-16T10:35:48.558Z,8.40
2017-10-16T10:38:16.019Z,8.17
2017-10-16T10:40:43.497Z,8.80
2017-10-16T10:43:11.728Z,9.87
2017-10-16T10:45:39.981Z,7.63
2017-10-16T10:48:07.448Z,8.97
2017-10-16T10:50:34.945Z,9.10
2017-10-16T10:53:06.104Z,8.20
2017-10-16T10:55:34.366Z,8.50
2017-10-16T10:58:01.824Z,8.60
2017-10-16T11:00:29.292Z,8.30
2017-10-16T11:02:57.533Z,8.97
2017-10-16T11:05:25.016Z,10.17
2017-10-16T11:07:52.488Z,8.80
2017-10-16T11:10:20.727Z,8.87
2017-10-16T11:12:48.197Z,9.20
2017-10-16T11:15:15.676Z,9.30
2017-10-16T11:17:43.139Z,8.67
2017-10-16T11:20:11.381Z,8.70
2017-10-16T11:22:39.613Z,8.60
2017-10-16T11:25:07.093Z,8.83
2017-10-16T11:27:34.609Z,8.50
2017-10-16T11:30:02.091Z,8.83
2017-10-16T11:32:29.556Z,8.97
2017-10-16T11:34:57.027Z,9.00
2017-10-16T11:37:24.491Z,9.00
2017-10-16T11:39:51.986Z,8.60
2017-10-16T11:42:19.462Z,9.13
2017-10-16T11:44:47.703Z,8.40
2017-10-16T11:47:15.200Z,8.20
2017-10-16T11:49:43.431Z,7.50
2017-10-16T11:52:11.911Z,8.30
2017-10-16T11:54:39.384Z,8.97
2017-10-16T11:57:06.868Z,7.70
2017-10-16T11:59:35.138Z,8.30
2017-10-16T12:02:02.629Z,7.80
2017-10-16T12:04:30.112Z,8.70
2017-10-16T12:06:57.585Z,8.10
2017-10-16T12:09:25.089Z,8.20
2017-10-16T12:11:53.326Z,8.57
2017-10-16T12:14:20.798Z,8.50
2017-10-16T12:16:48.313Z,8.83
2017-10-16T12:19:15.789Z,8.53
2017-10-16T12:21:43.269Z,8.40
2017-10-16T12:24:10.761Z,8.73
2017-10-16T12:26:38.225Z,7.70
2017-10-16T12:29:06.470Z,8.57
2017-10-16T12:31:33.939Z,8.77
2017-10-16T12:34:01.421Z,8.83
2017-10-16T12:36:29.664Z,7.93
2017-10-16T12:38:57.135Z,7.90
2017-10-16T12:41:24.614Z,6.90
2017-10-16T12:43:52.872Z,8.90
2017-10-16T12:46:20.357Z,7.90
2017-10-16T12:48:47.836Z,8.50
2017-10-16T12:51:15.299Z,8.67
2017-10-16T12:53:42.771Z,7.50
2017-10-16T12:56:10.248Z,7.40
2017-10-16T12:58:37.736Z,7.47
2017-10-16T13:01:05.971Z,6.60
2017-10-16T13:03:33.458Z,8.03
2017-10-16T13:06:00.924Z,7.97
2017-10-16T13:08:28.406Z,7.20
2017-10-16T13:10:55.868Z,7.37
2017-10-16T13:13:23.352Z,7.60
2017-10-16T13:15:50.815Z,7.47
2017-10-16T13:18:18.302Z,7.13
2017-10-16T13:20:45.768Z,6.77
2017-10-16T13:23:13.236Z,7.63
2017-10-16T13:25:41.467Z,7.50
2017-10-16T13:28:08.951Z,7.50
2017-10-16T13:30:36.441Z,6.97
2017-10-16T13:33:04.689Z,6.93
2017-10-16T13:35:32.160Z,6.70
2017-10-16T13:37:59.646Z,7.30
2017-10-16T13:40:27.129Z,7.33
2017-10-16T13:42:54.904Z,6.40
2017-10-16T13:45:22.376Z,7.53
2017-10-16T13:47:49.904Z,7.10
2017-10-16T13:50:17.373Z,6.97
2017-10-16T13:52:44.853Z,7.43
2017-10-16T13:55:13.098Z,7.20
2017-10-16T13:57:40.594Z,7.70
2017-10-16T14:00:08.078Z,7.13
2017-10-16T14:02:35.577Z,7.30
2017-10-16T14:05:03.048Z,7.23
2017-10-16T14:07:30.526Z,7.73
2017-10-16T14:09:58.003Z,7.60
2017-10-16T14:12:25.481Z,7.53
2017-10-16T14:14:53.724Z,7.97
2017-10-16T14:17:21.196Z,8.10
2017-10-16T14:19:48.671Z,8.23
2017-10-16T14:22:16.904Z,7.80
2017-10-16T14:24:44.372Z,9.17
2017-10-16T14:27:11.848Z,7.40
2017-10-16T14:29:39.324Z,8.10
2017-10-16T14:32:06.787Z,8.47
2017-10-16T14:34:35.065Z,7.80
2017-10-16T14:37:03.293Z,7.90
2017-10-16T14:39:30.769Z,8.03
2017-10-16T14:41:58.243Z,8.30
2017-10-16T14:44:25.720Z,8.23
2017-10-16T14:46:53.958Z,8.17
2017-10-16T14:49:21.452Z,8.07
2017-10-16T14:51:48.930Z,7.43
2017-10-16T14:54:16.411Z,8.37
2017-10-16T14:56:45.697Z,7.57
2017-10-16T14:59:13.184Z,7.87
2017-10-16T15:01:40.694Z,9.00
2017-10-16T15:04:08.920Z,7.60
2017-10-16T15:06:36.404Z,7.87
2017-10-16T15:09:03.883Z,8.40
2017-10-16T15:11:32.141Z,8.20
2017-10-16T15:13:59.622Z,7.70
2017-10-16T15:16:27.872Z,7.83
2017-10-16T15:18:55.362Z,6.90
2017-10-16T15:21:23.604Z,8.10
2017-10-16T15:23:51.071Z,7.70
2017-10-16T15:26:18.551Z,7.50
2017-10-16T15:28:46.798Z,7.67
2017-10-16T15:31:14.271Z,7.30
2017-10-16T15:33:41.749Z,9.30
2017-10-16T15:36:10.004Z,7.40
2017-10-16T15:38:37.489Z,8.70
2017-10-16T15:41:05.720Z,8.67
2017-10-16T15:43:33.211Z,7.60
2017-10-16T15:46:01.460Z,7.73
2017-10-16T15:48:28.932Z,9.07
2017-10-16T15:50:56.407Z,9.20
2017-10-16T15:53:24.664Z,9.33
2017-10-16T15:55:52.128Z,9.67
2017-10-16T15:58:19.645Z,9.07
2017-10-16T16:00:47.100Z,9.23
2017-10-16T16:03:14.588Z,10.20
2017-10-16T16:05:42.054Z,9.50
2017-10-16T16:08:09.528Z,9.40
2017-10-16T16:10:37.003Z,9.00
2017-10-16T16:13:04.483Z,9.97
2017-10-16T16:15:31.948Z,9.80
2017-10-16T16:17:59.427Z,9.63
2017-10-16T16:20:26.913Z,9.73
2017-10-16T16:22:54.394Z,9.40
2017-10-16T16:25:22.623Z,8.27
2017-10-16T16:27:50.118Z,9.43
2017-10-16T16:30:18.352Z,9.10
2017-10-16T16:32:45.823Z,10.30
2017-10-16T16:35:13.292Z,9.37
2017-10-16T16:37:40.772Z,9.40
2017-10-16T16:40:09.019Z,9.73
2017-10-16T16:42:36.516Z,9.77
2017-10-16T16:47:58.321Z,9.00
2017-10-16T16:50:25.789Z,8.90
2017-10-16T16:52:53.267Z,9.33
2017-10-16T16:55:21.511Z,10.00
2017-10-16T16:57:49.009Z,9.00
2017-10-16T17:00:17.248Z,10.50
2017-10-16T17:02:44.728Z,11.50
2017-10-16T17:05:12.204Z,10.33
2017-10-16T17:07:40.439Z,10.60
2017-10-16T17:10:07.916Z,10.13
2017-10-16T17:12:35.399Z,10.60
2017-10-16T17:15:03.660Z,11.43
2017-10-16T17:17:31.137Z,10.43
2017-10-16T17:19:59.392Z,11.07
2017-10-16T17:22:26.877Z,12.17
2017-10-16T17:24:55.146Z,11.43
2017-10-16T17:27:23.387Z,11.20
2017-10-16T17:29:50.868Z,11.70
2017-10-16T17:32:18.339Z,11.00
2017-10-16T17:34:46.588Z,11.77
2017-10-16T17:37:14.062Z,12.17
2017-10-16T17:39:41.553Z,10.53
2017-10-16T17:42:09.035Z,12.10
2017-10-16T17:44:36.511Z,12.23
2017-10-16T17:47:03.997Z,12.17
2017-10-16T17:49:31.474Z,11.43
2017-10-16T17:51:59.725Z,12.40
2017-10-16T17:54:27.961Z,11.63
2017-10-16T17:56:55.456Z,11.23
2017-10-16T17:59:23.701Z,12.00
2017-10-16T18:01:51.180Z,12.40
2017-10-16T18:04:18.993Z,11.90
2017-10-16T18:06:46.833Z,10.90
2017-10-16T18:09:15.084Z,11.50
2017-10-16T18:11:42.564Z,12.13
2017-10-16T18:14:10.805Z,12.53
2017-10-16T18:16:38.295Z,11.80
2017-10-16T18:19:06.535Z,12.13
2017-10-16T18:21:34.027Z,14.70
2017-10-16T18:24:01.496Z,12.77
2017-10-16T18:26:29.740Z,14.57
2017-10-16T18:28:57.212Z,13.10
2017-10-16T18:31:24.708Z,13.57
2017-10-16T18:33:52.186Z,13.40
2017-10-16T18:36:19.662Z,12.23
2017-10-16T18:38:47.503Z,12.80
2017-10-16T18:41:14.968Z,12.57
2017-10-16T18:43:42.460Z,12.53
2017-10-16T18:46:09.932Z,10.80
2017-10-16T18:48:37.410Z,11.20
2017-10-16T18:51:05.640Z,9.07
2017-10-16T18:53:33.129Z,10.03
2017-10-16T18:56:01.444Z,11.03
2017-10-16T18:58:28.954Z,11.00
2017-10-16T19:00:57.197Z,11.47
2017-10-16T19:03:24.685Z,11.37
2017-10-16T19:05:52.156Z,11.23
2017-10-16T19:08:20.432Z,12.57
2017-10-16T19:10:48.673Z,11.90
2017-10-16T19:13:16.181Z,11.07
2017-10-16T19:15:43.700Z,10.47
2017-10-16T19:18:12.701Z,9.20
2017-10-16T19:20:40.301Z,9.60
2017-10-16T19:23:08.564Z,10.00
2017-10-16T19:25:36.038Z,9.90
2017-10-16T19:28:03.549Z,10.30
2017-10-16T19:30:31.116Z,10.33
2017-10-16T19:32:58.677Z,10.27
2017-10-16T19:35:26.157Z,10.47
2017-10-16T19:37:54.408Z,9.73
2017-10-16T19:40:21.889Z,10.50
2017-10-16T19:42:50.471Z,11.07
2017-10-16T19:45:18.732Z,11.40
2017-10-16T19:47:46.210Z,10.17
2017-10-16T19:50:14.473Z,11.33
2017-10-16T19:52:41.947Z,11.67
2017-10-16T19:55:10.192Z,10.40
2017-10-16T19:57:37.668Z,10.90
2017-10-16T20:00:05.221Z,11.90
2017-10-16T20:02:32.700Z,10.80
2017-10-16T20:05:01.160Z,10.83
2017-10-16T20:07:28.637Z,11.20
2017-10-16T20:09:56.893Z,11.93
2017-10-16T20:12:24.367Z,11.33
2017-10-16T20:14:52.660Z,12.10
2017-10-16T20:17:20.957Z,12.27
2017-10-16T20:19:48.469Z,11.60
2017-10-16T20:22:16.078Z,12.10
2017-10-16T20:24:43.619Z,11.40
2017-10-16T20:27:11.875Z,12.17
2017-10-16T20:29:39.340Z,11.20
2017-10-16T20:32:07.584Z,11.40
2017-10-16T20:34:35.096Z,12.63
2017-10-16T20:37:02.616Z,12.17
2017-10-16T20:39:30.106Z,12.87
2017-10-16T20:41:58.470Z,12.10
2017-10-16T20:44:26.133Z,11.73
2017-10-16T20:46:53.681Z,11.40
2017-10-16T20:49:21.159Z,12.40
2017-10-16T20:51:49.404Z,13.30
2017-10-16T20:54:16.982Z,12.20
2017-10-16T20:56:44.464Z,12.50
2017-10-16T20:59:12.694Z,13.97
2017-10-16T21:01:40.181Z,12.90
2017-10-16T21:04:08.420Z,12.97
2017-10-16T21:06:36.015Z,11.93
2017-10-16T21:09:03.483Z,12.73
2017-10-16T21:11:31.736Z,11.40
2017-10-16T21:13:59.232Z,11.07
2017-10-16T21:16:27.483Z,10.40
2017-10-16T21:18:55.050Z,10.37
2017-10-16T21:21:23.287Z,11.57
2017-10-16T21:23:50.776Z,11.73
2017-10-16T21:26:18.336Z,12.33
2017-10-16T21:28:45.811Z,11.40
2017-10-16T21:31:14.120Z,11.03
2017-10-16T21:33:41.728Z,9.57
2017-10-16T21:36:09.196Z,7.70
2017-10-16T21:38:36.676Z,9.43
2017-10-16T21:41:04.920Z,9.03
2017-10-16T21:43:32.479Z,8.30
2017-10-16T21:46:00.052Z,7.67
2017-10-16T21:48:27.605Z,9.37
2017-10-16T21:50:55.073Z,8.90
2017-10-16T21:53:22.549Z,9.50
2017-10-16T21:55:50.835Z,10.90
2017-10-16T21:58:18.312Z,10.53
2017-10-16T22:00:45.783Z,9.13
2017-10-16T22:03:13.273Z,9.90
2017-10-16T22:05:40.735Z,9.83
2017-10-16T22:08:08.992Z,10.70
2017-10-16T22:10:36.468Z,10.20
2017-10-16T22:13:03.967Z,9.67
2017-10-16T22:15:31.440Z,9.10
2017-10-16T22:17:58.987Z,9.73
2017-10-16T22:20:26.465Z,8.93
2017-10-16T22:22:53.953Z,8.33
2017-10-16T22:25:21.425Z,7.60
2017-10-16T22:27:49.655Z,7.67
2017-10-16T22:30:17.140Z,7.70
2017-10-16T22:32:44.616Z,7.00
2017-10-16T22:35:12.868Z,6.87
2017-10-16T22:37:40.339Z,6.90
2017-10-16T22:40:07.825Z,7.80
2017-10-16T22:42:36.073Z,6.70
2017-10-16T22:45:03.544Z,6.47
2017-10-16T22:47:31.824Z,6.33
2017-10-16T22:50:00.064Z,7.30
2017-10-16T22:55:21.028Z,7.03
2017-10-16T22:57:48.492Z,6.60
2017-10-16T23:00:16.023Z,6.43
2017-10-16T23:02:44.255Z,6.43
2017-10-16T23:05:11.835Z,7.13
2017-10-16T23:07:51.823Z,6.73
2017-10-16T23:10:19.306Z,6.97
2017-10-16T23:12:46.775Z,7.20
2017-10-16T23:15:14.323Z,6.87
2017-10-16T23:17:41.827Z,7.03
2017-10-16T23:20:09.320Z,7.23
2017-10-16T23:22:36.783Z,6.63
2017-10-16T23:25:04.248Z,7.20
2017-10-16T23:27:31.737Z,7.57
2017-10-16T23:29:59.212Z,7.20
2017-10-16T23:32:26.689Z,8.30
2017-10-16T23:34:54.925Z,7.13
2017-10-16T23:37:22.392Z,7.13
2017-10-16T23:39:49.876Z,7.77
2017-10-16T23:42:17.368Z,7.27
2017-10-16T23:44:44.850Z,6.20
2017-10-16T23:47:12.325Z,7.03
2017-10-16T23:49:39.805Z,6.67
2017-10-16T23:52:07.274Z,7.50
2017-10-16T23:54:35.520Z,6.93
2017-10-16T23:57:03.092Z,7.60
2017-10-16T23:59:30.559Z,8.03
